Time;durP1;ratioP1;P1;durP2;ratioP2;P2;SDS_P1;SDS_P2;PMS_P1;PMS_P2;Temp;Humidity;BMP_temperature;BMP_pressure;BME280_temperature;BME280_humidity;BME280_pressure;Samples;Min_cycle;Max_cycle;Signal;HPM_P1;HPM_P2
2022/10/22 00:00:46;;;;;;;5.13;2.67;;;17.10;99.90;;;;;;5036714;28;20170;-71
2022/10/22 00:03:14;;;;;;;4.55;2.65;;;17.10;99.90;;;;;;5029035;28;20214;-72
2022/10/22 00:05:42;;;;;;;4.05;2.40;;;17.10;99.90;;;;;;5029521;28;20182;-71
2022/10/22 00:08:08;;;;;;;4.85;2.47;;;17.10;99.90;;;;;;5036063;28;20178;-71
2022/10/22 00:10:33;;;;;;;3.10;2.40;;;17.10;99.90;;;;;;5037187;28;20365;-71
2022/10/22 00:12:59;;;;;;;4.28;2.55;;;17.20;99.90;;;;;;5034671;28;20216;-71
2022/10/22 00:15:25;;;;;;;4.30;2.45;;;17.10;99.90;;;;;;5025411;28;20267;-71
2022/10/22 00:17:53;;;;;;;4.63;2.70;;;17.20;99.90;;;;;;5035772;28;20185;-72
2022/10/22 00:20:18;;;;;;;3.45;2.67;;;17.20;99.90;;;;;;5035523;28;20293;-71
2022/10/22 00:22:44;;;;;;;5.03;2.40;;;17.20;99.90;;;;;;5025916;28;20210;-71
2022/10/22 00:25:10;;;;;;;3.47;2.58;;;17.20;99.90;;;;;;5033448;28;20194;-71
2022/10/22 00:27:35;;;;;;;5.10;2.42;;;17.20;99.90;;;;;;5017040;28;20205;-72
2022/10/22 00:30:01;;;;;;;4.85;2.63;;;17.20;99.90;;;;;;5017233;28;20179;-71
2022/10/22 00:32:28;;;;;;;3.17;2.58;;;17.20;99.90;;;;;;5016905;28;20198;-71
2022/10/22 00:34:54;;;;;;;3.97;2.75;;;17.20;99.90;;;;;;5016982;28;20182;-72
2022/10/22 00:37:22;;;;;;;3.50;2.38;;;17.20;99.90;;;;;;5017407;28;20182;-71
2022/10/22 00:39:50;;;;;;;3.33;2.50;;;17.20;99.90;;;;;;5028895;28;20205;-73
2022/10/22 00:42:24;;;;;;;6.78;2.42;;;17.30;99.90;;;;;;5036429;28;20174;-71
2022/10/22 00:45:10;;;;;;;3.38;2.42;;;17.30;99.90;;;;;;5016752;28;20182;-73
2022/10/22 00:47:58;;;;;;;3.75;2.60;;;17.30;99.90;;;;;;5027830;28;20209;-73
2022/10/22 00:50:42;;;;;;;3.30;2.55;;;17.30;99.90;;;;;;5024231;28;20181;-74
2022/10/22 00:53:16;;;;;;;3.95;2.60;;;17.40;99.90;;;;;;5035999;28;20198;-73
2022/10/22 00:55:44;;;;;;;4.45;2.78;;;17.40;99.90;;;;;;5034904;28;20165;-72
2022/10/22 00:58:11;;;;;;;4.18;2.45;;;17.40;99.90;;;;;;5035183;28;20205;-73
2022/10/22 01:00:39;;;;;;;3.22;2.70;;;17.40;99.90;;;;;;5033350;28;20243;-71
2022/10/22 01:03:05;;;;;;;3.33;2.53;;;17.40;99.90;;;;;;5027147;28;20286;-74
2022/10/22 01:05:39;;;;;;;4.72;3.00;;;17.40;99.90;;;;;;5032668;28;20277;-71
2022/10/22 01:08:09;;;;;;;5.70;2.83;;;17.30;99.90;;;;;;5026875;28;20186;-71
2022/10/22 01:10:54;;;;;;;3.22;2.83;;;17.40;99.90;;;;;;5035937;28;20194;-72
2022/10/22 01:13:57;;;;;;;3.40;2.50;;;17.30;99.90;;;;;;5034639;28;20240;-71
2022/10/22 01:16:43;;;;;;;3.00;2.38;;;17.40;99.90;;;;;;5035628;28;20197;-73
2022/10/22 01:19:31;;;;;;;4.28;2.60;;;17.30;99.90;;;;;;5033326;28;20182;-73
2022/10/22 01:22:07;;;;;;;6.63;2.80;;;17.30;99.90;;;;;;5019873;28;20209;-72
2022/10/22 01:24:35;;;;;;;3.10;2.50;;;17.30;99.90;;;;;;5031377;28;20192;-74
2022/10/22 01:27:21;;;;;;;2.75;2.40;;;17.30;99.90;;;;;;5036185;28;20170;-71
2022/10/22 01:29:56;;;;;;;3.05;2.13;;;17.20;99.90;;;;;;5034472;28;20198;-72
2022/10/22 01:32:24;;;;;;;3.83;2.80;;;17.20;99.90;;;;;;5034725;28;20203;-73
2022/10/22 01:35:08;;;;;;;4.32;2.67;;;17.20;99.90;;;;;;5026362;28;20261;-72
2022/10/22 01:37:40;;;;;;;4.25;2.85;;;17.30;99.90;;;;;;5023597;28;20189;-72
2022/10/22 01:40:13;;;;;;;4.55;2.90;;;17.20;99.90;;;;;;5035456;28;20174;-72
2022/10/22 01:42:38;;;;;;;6.35;2.88;;;17.30;99.90;;;;;;5034789;28;20314;-72
2022/10/22 01:45:13;;;;;;;3.70;2.65;;;17.30;99.90;;;;;;5032902;28;20182;-73
2022/10/22 01:48:11;;;;;;;3.05;2.75;;;17.30;99.90;;;;;;5034601;28;20212;-72
2022/10/22 01:50:44;;;;;;;3.53;2.80;;;17.30;99.90;;;;;;5034778;28;20205;-73
2022/10/22 01:53:34;;;;;;;3.83;2.90;;;17.30;99.90;;;;;;5031800;28;20193;-73
2022/10/22 01:56:31;;;;;;;3.95;2.58;;;17.30;99.90;;;;;;5034252;28;20281;-72
2022/10/22 01:58:57;;;;;;;5.30;2.60;;;17.30;99.90;;;;;;5033345;28;20196;-72
2022/10/22 02:01:51;;;;;;;3.83;2.67;;;17.30;99.90;;;;;;5023147;28;20281;-72
2022/10/22 02:04:25;;;;;;;3.63;2.53;;;17.30;99.90;;;;;;5032905;28;20194;-73
2022/10/22 02:06:53;;;;;;;3.60;2.80;;;17.30;99.90;;;;;;5033946;28;20193;-72
2022/10/22 02:09:22;;;;;;;2.88;2.58;;;17.30;99.90;;;;;;5022859;28;20179;-72
2022/10/22 02:11:53;;;;;;;3.92;2.65;;;17.30;99.90;;;;;;5030547;28;20240;-73
2022/10/22 02:14:24;;;;;;;8.02;2.58;;;17.30;99.90;;;;;;5029474;28;20261;-73
2022/10/22 02:16:50;;;;;;;3.55;2.60;;;17.30;99.90;;;;;;5031543;28;20324;-74
2022/10/22 02:19:23;;;;;;;5.55;2.40;;;17.30;99.90;;;;;;5028153;28;20176;-72
2022/10/22 02:21:50;;;;;;;4.53;2.70;;;17.30;99.90;;;;;;5032552;28;20182;-73
2022/10/22 02:24:16;;;;;;;3.60;2.60;;;17.30;99.90;;;;;;5026891;28;20175;-73
2022/10/22 02:26:53;;;;;;;4.22;2.45;;;17.30;99.90;;;;;;5034170;28;20205;-72
2022/10/22 02:29:29;;;;;;;4.43;2.47;;;17.30;99.90;;;;;;5034996;28;20278;-73
2022/10/22 02:31:59;;;;;;;3.83;2.78;;;17.30;99.90;;;;;;5018360;28;20198;-73
2022/10/22 02:34:29;;;;;;;3.58;2.70;;;17.30;99.90;;;;;;5032994;28;20201;-72
2022/10/22 02:36:55;;;;;;;3.20;2.40;;;17.20;99.90;;;;;;5027601;28;20230;-72
2022/10/22 02:39:21;;;;;;;3.03;2.53;;;17.20;99.90;;;;;;5034366;28;20290;-73
2022/10/22 02:41:48;;;;;;;3.17;2.42;;;17.20;99.90;;;;;;5034337;28;20185;-72
2022/10/22 02:44:19;;;;;;;5.20;2.80;;;17.20;99.90;;;;;;5034404;28;20174;-73
2022/10/22 02:46:47;;;;;;;3.33;2.70;;;17.20;99.90;;;;;;5034142;28;20231;-73
2022/10/22 02:49:15;;;;;;;4.57;2.70;;;17.20;99.90;;;;;;5034747;28;20212;-73
2022/10/22 02:51:41;;;;;;;3.80;2.80;;;17.20;99.90;;;;;;5034666;28;20240;-73
2022/10/22 02:54:06;;;;;;;3.97;2.50;;;17.20;99.90;;;;;;5034241;28;20197;-73
2022/10/22 02:56:32;;;;;;;5.07;2.97;;;17.20;99.90;;;;;;5027064;28;20190;-73
2022/10/22 02:58:58;;;;;;;2.97;2.55;;;17.20;99.90;;;;;;5017085;28;20453;-72
2022/10/22 03:01:24;;;;;;;3.88;2.83;;;17.20;99.90;;;;;;5034713;28;20281;-72
2022/10/22 03:03:52;;;;;;;3.13;2.83;;;17.20;99.90;;;;;;5023135;28;20237;-73
2022/10/22 03:06:18;;;;;;;3.58;2.70;;;17.20;99.90;;;;;;5024293;28;20174;-72
2022/10/22 03:08:44;;;;;;;6.10;2.80;;;17.20;99.90;;;;;;5034726;28;20174;-72
2022/10/22 03:11:14;;;;;;;3.00;2.60;;;17.20;99.90;;;;;;5033040;28;20179;-73
2022/10/22 03:13:42;;;;;;;5.18;2.78;;;17.10;99.90;;;;;;5033961;28;20202;-73
2022/10/22 03:16:07;;;;;;;4.13;2.72;;;17.20;99.90;;;;;;5034409;28;20202;-72
2022/10/22 03:18:33;;;;;;;3.60;2.70;;;17.20;99.90;;;;;;5033907;28;20205;-73
2022/10/22 03:21:17;;;;;;;7.38;2.55;;;17.20;99.90;;;;;;5028095;28;20179;-73
2022/10/22 03:23:43;;;;;;;3.25;2.60;;;17.20;99.90;;;;;;5028070;28;20185;-73
2022/10/22 03:26:14;;;;;;;2.90;2.60;;;17.20;99.90;;;;;;5022742;28;20179;-73
2022/10/22 03:28:40;;;;;;;3.00;2.60;;;17.20;99.90;;;;;;5029581;28;20177;-72
2022/10/22 03:31:06;;;;;;;4.05;2.85;;;17.20;99.90;;;;;;5036326;28;20185;-73
2022/10/22 03:33:34;;;;;;;4.65;3.10;;;17.20;99.90;;;;;;5029923;28;20220;-74
2022/10/22 03:36:02;;;;;;;3.60;2.90;;;17.20;99.90;;;;;;5025603;28;20181;-72
2022/10/22 03:38:31;;;;;;;3.97;2.97;;;17.20;99.90;;;;;;5022688;28;20208;-73
2022/10/22 03:41:00;;;;;;;3.45;2.50;;;17.20;99.90;;;;;;5021342;28;20186;-73
2022/10/22 03:43:26;;;;;;;3.42;2.90;;;17.10;99.90;;;;;;5037658;28;20273;-73
2022/10/22 03:45:51;;;;;;;11.18;3.28;;;17.10;99.90;;;;;;5037552;28;20280;-73
2022/10/22 03:48:17;;;;;;;5.82;3.17;;;17.10;99.90;;;;;;5035153;28;20206;-72
2022/10/22 03:50:43;;;;;;;4.10;2.97;;;17.10;99.90;;;;;;5018043;28;20409;-73
2022/10/22 03:53:09;;;;;;;4.32;3.13;;;17.10;99.90;;;;;;5020862;28;20496;-73
2022/10/22 03:55:39;;;;;;;5.68;3.13;;;17.10;99.90;;;;;;5037734;28;20181;-73
2022/10/22 03:58:04;;;;;;;4.63;3.15;;;17.00;99.90;;;;;;5025293;28;20212;-72
2022/10/22 04:00:31;;;;;;;4.68;3.47;;;17.00;99.90;;;;;;5031803;28;20173;-72
2022/10/22 04:02:57;;;;;;;3.20;2.90;;;16.90;99.90;;;;;;5035930;28;20232;-72
2022/10/22 04:05:22;;;;;;;3.92;3.38;;;16.90;99.90;;;;;;5040444;28;20197;-72
2022/10/22 04:07:54;;;;;;;4.65;3.40;;;16.90;99.90;;;;;;5031394;28;20198;-72
2022/10/22 04:10:22;;;;;;;5.15;3.50;;;16.80;99.90;;;;;;5032010;28;20217;-74
2022/10/22 04:12:50;;;;;;;4.28;3.65;;;16.80;99.90;;;;;;5037457;28;20313;-74
2022/10/22 04:15:18;;;;;;;6.03;3.60;;;16.70;99.90;;;;;;5037812;28;20174;-74
2022/10/22 04:17:48;;;;;;;4.18;3.50;;;16.70;99.90;;;;;;5019979;28;20270;-74
2022/10/22 04:20:14;;;;;;;4.95;3.80;;;16.70;99.90;;;;;;5037117;28;20261;-73
2022/10/22 04:22:39;;;;;;;5.85;4.10;;;16.60;99.90;;;;;;5036250;28;20281;-75
2022/10/22 04:25:05;;;;;;;4.70;3.42;;;16.60;99.90;;;;;;5043273;28;20220;-73
2022/10/22 04:27:32;;;;;;;5.43;4.32;;;16.60;99.90;;;;;;5035231;28;20206;-75
2022/10/22 04:29:57;;;;;;;5.45;4.30;;;16.50;99.90;;;;;;5026857;28;20185;-75
2022/10/22 04:32:24;;;;;;;5.20;4.22;;;16.50;99.90;;;;;;5036556;28;20251;-75
2022/10/22 04:34:50;;;;;;;9.88;6.85;;;16.50;99.90;;;;;;5034854;28;20238;-74
2022/10/22 04:37:18;;;;;;;6.57;5.07;;;16.40;99.90;;;;;;5042025;28;20190;-74
2022/10/22 04:39:43;;;;;;;7.32;4.97;;;16.40;99.90;;;;;;5024715;28;20166;-74
2022/10/22 04:42:10;;;;;;;6.03;4.95;;;16.40;99.90;;;;;;5035015;28;21587;-76
2022/10/22 04:44:38;;;;;;;5.50;4.40;;;16.30;99.90;;;;;;5037979;28;20208;-75
2022/10/22 04:47:05;;;;;;;4.57;3.75;;;16.30;99.90;;;;;;5037563;28;20180;-74
2022/10/22 04:49:36;;;;;;;5.03;3.97;;;16.30;99.90;;;;;;5038438;28;20182;-74
2022/10/22 04:52:01;;;;;;;4.38;3.97;;;16.20;99.90;;;;;;5038929;28;20256;-74
2022/10/22 04:54:27;;;;;;;4.90;3.70;;;16.20;99.90;;;;;;5029373;28;20185;-74
2022/10/22 04:56:55;;;;;;;4.38;3.85;;;16.20;99.90;;;;;;5037943;28;20213;-74
2022/10/22 04:59:21;;;;;;;6.35;3.70;;;16.10;99.90;;;;;;5035512;28;20194;-74
2022/10/22 05:01:47;;;;;;;5.22;3.70;;;16.10;99.90;;;;;;5041534;28;20198;-74
2022/10/22 05:04:15;;;;;;;4.38;3.97;;;16.10;99.90;;;;;;5026805;28;20202;-74
2022/10/22 05:06:44;;;;;;;9.30;4.10;;;16.10;99.90;;;;;;5036941;28;20241;-74
2022/10/22 05:09:19;;;;;;;5.80;3.80;;;16.10;99.90;;;;;;5037955;28;20208;-75
2022/10/22 05:11:49;;;;;;;6.95;3.72;;;16.10;99.90;;;;;;5037317;28;20196;-75
2022/10/22 05:14:23;;;;;;;6.63;3.95;;;16.00;99.90;;;;;;5036347;28;20170;-75
2022/10/22 05:16:50;;;;;;;4.68;3.65;;;16.00;99.90;;;;;;5034509;28;20202;-74
2022/10/22 05:19:22;;;;;;;4.75;3.30;;;16.00;99.90;;;;;;5038434;28;20206;-74
2022/10/22 05:21:49;;;;;;;4.95;3.33;;;15.90;99.90;;;;;;5029878;28;20179;-74
2022/10/22 05:24:15;;;;;;;7.78;5.38;;;15.90;99.90;;;;;;5043535;28;20219;-75
2022/10/22 05:26:42;;;;;;;7.32;4.65;;;15.90;99.90;;;;;;5041438;28;20238;-74
2022/10/22 05:29:08;;;;;;;5.60;4.35;;;15.90;99.90;;;;;;5044520;28;20218;-74
2022/10/22 05:31:34;;;;;;;5.32;4.22;;;15.80;99.90;;;;;;5015546;28;20221;-73
2022/10/22 05:34:02;;;;;;;5.60;3.50;;;15.80;99.90;;;;;;5026221;28;20269;-75
2022/10/22 05:36:27;;;;;;;4.07;3.42;;;15.80;99.90;;;;;;5022834;28;20226;-75
2022/10/22 05:38:53;;;;;;;4.38;3.90;;;15.70;99.90;;;;;;5036339;28;20169;-77
2022/10/22 05:41:24;;;;;;;4.40;3.38;;;15.70;99.90;;;;;;5054062;28;20272;-76
2022/10/22 05:43:50;;;;;;;7.15;6.07;;;15.70;99.90;;;;;;5046320;28;20254;-76
2022/10/22 05:46:23;;;;;;;8.68;6.40;;;15.60;99.90;;;;;;5040473;28;20178;-77
2022/10/22 05:48:58;;;;;;;5.43;4.68;;;15.60;99.90;;;;;;5038402;28;20181;-76
2022/10/22 05:51:25;;;;;;;6.53;4.10;;;15.60;99.90;;;;;;5032379;28;20185;-77
2022/10/22 05:53:53;;;;;;;4.72;4.00;;;15.60;99.90;;;;;;5015627;28;20206;-76
2022/10/22 05:56:19;;;;;;;4.82;3.60;;;15.50;99.90;;;;;;5030030;28;20208;-76
2022/10/22 05:58:45;;;;;;;4.20;3.70;;;15.50;99.90;;;;;;5034132;28;20162;-76
2022/10/22 06:01:15;;;;;;;4.55;3.42;;;15.50;99.90;;;;;;5033437;28;20188;-74
2022/10/22 06:03:41;;;;;;;5.75;3.42;;;15.50;99.90;;;;;;5034463;28;20275;-74
2022/10/22 06:06:15;;;;;;;4.38;3.60;;;15.50;99.90;;;;;;5036621;28;20178;-75
2022/10/22 06:08:45;;;;;;;4.70;3.60;;;15.40;99.90;;;;;;5051972;28;20279;-75
2022/10/22 06:11:10;;;;;;;5.75;3.85;;;15.30;99.90;;;;;;5043482;28;20202;-75
2022/10/22 06:13:37;;;;;;;4.43;3.60;;;15.30;99.90;;;;;;5032684;28;20260;-75
2022/10/22 06:16:05;;;;;;;4.25;3.85;;;15.30;99.90;;;;;;5036084;28;20206;-75
2022/10/22 06:18:32;;;;;;;5.65;4.20;;;15.30;99.90;;;;;;5027592;28;20178;-75
2022/10/22 06:21:09;;;;;;;83.20;49.45;;;15.30;99.90;;;;;;5032631;28;20190;-76
2022/10/22 06:23:38;;;;;;;27.23;19.27;;;15.30;99.90;;;;;;5018707;28;20202;-76
2022/10/22 06:26:05;;;;;;;16.40;12.25;;;15.30;99.90;;;;;;5016519;28;20206;-76
2022/10/22 06:28:32;;;;;;;12.68;9.40;;;15.30;99.90;;;;;;5031083;28;20204;-76
2022/10/22 06:31:01;;;;;;;9.57;7.50;;;15.30;99.90;;;;;;5031516;28;20213;-76
2022/10/22 06:33:30;;;;;;;8.23;5.72;;;15.30;99.90;;;;;;5031636;28;20227;-76
2022/10/22 06:36:17;;;;;;;6.20;4.90;;;15.30;99.90;;;;;;5025766;28;20205;-76
2022/10/22 06:38:45;;;;;;;5.20;4.32;;;15.30;99.90;;;;;;5033576;28;20250;-76
2022/10/22 06:41:18;;;;;;;5.97;4.72;;;15.30;99.90;;;;;;5031106;28;20241;-77
2022/10/22 06:43:45;;;;;;;5.93;3.85;;;15.30;99.90;;;;;;5029401;28;20202;-76
2022/10/22 06:46:12;;;;;;;6.88;4.22;;;15.30;99.90;;;;;;5015809;28;20179;-76
2022/10/22 06:48:40;;;;;;;5.85;4.05;;;15.30;99.90;;;;;;5027075;28;20213;-76
2022/10/22 06:51:11;;;;;;;5.50;4.03;;;15.40;99.90;;;;;;5034212;28;20178;-76
2022/10/22 06:53:38;;;;;;;7.60;5.05;;;15.40;99.90;;;;;;5018800;28;20229;-76
2022/10/22 06:56:06;;;;;;;7.38;5.13;;;15.50;99.90;;;;;;5034081;28;20190;-76
2022/10/22 06:58:31;;;;;;;6.32;4.90;;;15.50;99.90;;;;;;5029886;28;20191;-76
2022/10/22 07:01:05;;;;;;;5.47;4.30;;;15.60;99.90;;;;;;5032002;28;20185;-76
2022/10/22 07:03:31;;;;;;;7.53;3.95;;;15.60;99.90;;;;;;5014332;28;20300;-75
2022/10/22 07:06:07;;;;;;;5.25;4.15;;;15.60;99.90;;;;;;5028599;28;20257;-75
2022/10/22 07:08:39;;;;;;;4.53;3.75;;;15.60;99.90;;;;;;5032478;28;20177;-76
2022/10/22 07:11:13;;;;;;;5.78;3.90;;;15.60;99.90;;;;;;5027976;28;20182;-77
2022/10/22 07:13:39;;;;;;;6.50;3.78;;;15.60;99.90;;;;;;5037453;28;20194;-76
2022/10/22 07:16:06;;;;;;;5.90;4.10;;;15.60;99.90;;;;;;5030769;28;20201;-76
2022/10/22 07:18:32;;;;;;;6.40;3.83;;;15.60;99.90;;;;;;5035081;28;20170;-76
2022/10/22 07:20:58;;;;;;;5.40;3.85;;;15.60;99.90;;;;;;5032794;28;20205;-76
2022/10/22 07:23:28;;;;;;;5.68;3.47;;;15.60;99.90;;;;;;5030539;28;20209;-76
2022/10/22 07:25:53;;;;;;;4.60;3.58;;;15.60;99.90;;;;;;5034675;28;20186;-76
2022/10/22 07:28:19;;;;;;;6.88;4.07;;;15.60;99.90;;;;;;5033838;28;20206;-76
2022/10/22 07:30:45;;;;;;;4.50;3.90;;;15.60;99.90;;;;;;5036122;28;20174;-75
2022/10/22 07:33:12;;;;;;;4.18;3.63;;;15.60;99.90;;;;;;5038329;28;20265;-76
2022/10/22 07:35:39;;;;;;;7.13;4.22;;;15.60;99.90;;;;;;5033332;28;20195;-77
2022/10/22 07:38:05;;;;;;;4.53;3.83;;;15.60;99.90;;;;;;5033750;28;20174;-76
2022/10/22 07:40:31;;;;;;;6.03;3.92;;;15.70;99.90;;;;;;5033411;28;20272;-76
2022/10/22 07:42:56;;;;;;;6.78;3.90;;;15.70;99.90;;;;;;5037004;28;20181;-77
2022/10/22 07:45:22;;;;;;;5.18;4.45;;;15.70;99.90;;;;;;5037675;28;20182;-75
2022/10/22 07:47:48;;;;;;;4.53;4.03;;;15.80;99.90;;;;;;5023946;28;20228;-75
2022/10/22 07:50:17;;;;;;;4.45;3.63;;;15.80;99.90;;;;;;5036208;28;20201;-76
2022/10/22 07:52:42;;;;;;;8.20;3.70;;;16.00;99.90;;;;;;5038637;28;20240;-75
2022/10/22 07:55:08;;;;;;;5.72;3.88;;;16.00;99.90;;;;;;5041093;28;20210;-76
2022/10/22 07:57:36;;;;;;;4.68;3.67;;;16.20;99.90;;;;;;5035985;28;20174;-76
2022/10/22 08:00:07;;;;;;;5.47;3.40;;;16.30;99.90;;;;;;5035312;28;20198;-77
2022/10/22 08:02:36;;;;;;;3.70;3.25;;;16.40;99.90;;;;;;5034234;28;20289;-76
2022/10/22 08:05:01;;;;;;;4.50;3.33;;;16.50;99.90;;;;;;5017872;28;20191;-77
2022/10/22 08:07:35;;;;;;;4.35;3.65;;;16.60;99.90;;;;;;5036744;28;20228;-74
2022/10/22 08:10:15;;;;;;;3.25;2.90;;;16.70;99.90;;;;;;5035607;28;20223;-77
2022/10/22 08:12:43;;;;;;;6.35;3.00;;;16.80;99.90;;;;;;5022293;28;20242;-77
2022/10/22 08:15:11;;;;;;;4.85;2.78;;;16.80;99.90;;;;;;5022028;28;20181;-79
2022/10/22 08:17:37;;;;;;;3.60;2.70;;;16.90;99.90;;;;;;5026496;28;20185;-77
2022/10/22 08:20:03;;;;;;;5.60;2.80;;;17.00;99.90;;;;;;5025021;28;20190;-78
2022/10/22 08:22:31;;;;;;;3.35;2.20;;;17.20;99.90;;;;;;5038017;28;20189;-78
2022/10/22 08:24:57;;;;;;;5.15;2.05;;;17.30;99.90;;;;;;5031133;28;20189;-80
2022/10/22 08:27:25;;;;;;;3.85;2.40;;;17.40;99.90;;;;;;5035188;28;20188;-78
2022/10/22 08:29:51;;;;;;;5.43;1.90;;;17.40;99.90;;;;;;5035870;28;20192;-76
2022/10/22 08:32:20;;;;;;;4.43;1.50;;;17.50;99.90;;;;;;5030995;28;20198;-81
2022/10/22 08:34:45;;;;;;;3.58;1.73;;;17.60;99.90;;;;;;5031833;28;20175;-78
2022/10/22 08:37:13;;;;;;;2.55;1.48;;;17.70;99.90;;;;;;5039342;28;20192;-78
2022/10/22 08:39:40;;;;;;;2.65;1.17;;;17.80;99.90;;;;;;5042513;28;20188;-78
2022/10/22 08:42:26;;;;;;;3.28;1.33;;;17.90;99.90;;;;;;5039701;28;20174;-80
2022/10/22 08:44:58;;;;;;;4.82;1.88;;;18.00;99.90;;;;;;5018849;28;20232;-78
2022/10/22 08:47:57;;;;;;;3.45;2.05;;;18.10;99.90;;;;;;5037133;28;20449;-76
2022/10/22 08:50:30;;;;;;;4.72;1.70;;;18.10;99.90;;;;;;5014617;28;20304;-78
2022/10/22 08:53:00;;;;;;;2.80;1.50;;;18.20;99.90;;;;;;5019575;28;20211;-78
2022/10/22 08:55:32;;;;;;;3.03;1.52;;;18.20;99.90;;;;;;5027900;28;20222;-79
2022/10/22 08:58:14;;;;;;;3.25;1.20;;;18.20;99.90;;;;;;5031253;28;20217;-78
2022/10/22 09:01:04;;;;;;;5.13;1.42;;;18.30;99.90;;;;;;5028884;28;20185;-77
2022/10/22 09:03:56;;;;;;;5.55;1.30;;;18.30;99.90;;;;;;5000175;28;20201;-79
2022/10/22 09:06:25;;;;;;;2.50;1.00;;;18.30;99.90;;;;;;5032426;28;20209;-78
2022/10/22 09:08:52;;;;;;;6.85;1.65;;;18.30;99.90;;;;;;5035925;28;20206;-77
2022/10/22 09:11:22;;;;;;;2.13;1.10;;;18.30;99.90;;;;;;5032681;28;20175;-76
2022/10/22 09:13:48;;;;;;;4.75;1.30;;;18.30;99.90;;;;;;5033698;28;20269;-77
2022/10/22 09:16:25;;;;;;;3.28;1.20;;;18.40;99.90;;;;;;5037801;28;20182;-78
2022/10/22 09:19:07;;;;;;;3.72;1.15;;;18.40;99.90;;;;;;5034279;28;20174;-80
2022/10/22 09:21:38;;;;;;;3.15;1.23;;;18.40;99.90;;;;;;5025564;28;20259;-78
2022/10/22 09:24:20;;;;;;;2.70;1.10;;;18.50;99.90;;;;;;5030905;28;20256;-78
2022/10/22 09:26:52;;;;;;;3.13;1.17;;;18.40;99.90;;;;;;5034800;28;20182;-77
2022/10/22 09:29:23;;;;;;;3.83;1.17;;;18.40;99.90;;;;;;5027033;28;20194;-77
2022/10/22 09:31:49;;;;;;;4.35;1.05;;;18.50;99.90;;;;;;5030038;28;20174;-78
2022/10/22 09:34:19;;;;;;;2.95;0.90;;;18.50;99.90;;;;;;5030894;28;20166;-77
2022/10/22 09:36:45;;;;;;;3.38;0.90;;;18.50;99.90;;;;;;5023090;28;20198;-78
2022/10/22 09:39:31;;;;;;;2.53;0.93;;;18.60;99.90;;;;;;5035822;28;20273;-77
2022/10/22 09:41:56;;;;;;;3.20;1.75;;;18.60;99.90;;;;;;5044536;28;20414;-78
2022/10/22 09:44:23;;;;;;;3.50;1.90;;;18.60;99.90;;;;;;5037498;28;20194;-77
2022/10/22 09:46:51;;;;;;;2.05;1.30;;;18.60;99.90;;;;;;5038331;28;20184;-78
2022/10/22 09:49:20;;;;;;;3.30;1.20;;;18.70;99.90;;;;;;5026843;28;20178;-78
2022/10/22 09:51:58;;;;;;;3.83;1.20;;;18.70;99.90;;;;;;5025602;28;20236;-77
2022/10/22 09:54:41;;;;;;;3.60;1.38;;;18.80;99.90;;;;;;5039477;28;20434;-79
2022/10/22 09:57:20;;;;;;;3.70;1.10;;;18.80;99.90;;;;;;5039103;28;20194;-78
2022/10/22 09:59:52;;;;;;;1.63;0.90;;;18.80;99.90;;;;;;5025767;28;20212;-78
2022/10/22 10:02:21;;;;;;;2.75;0.95;;;18.90;99.90;;;;;;5033563;28;20412;-79
2022/10/22 10:04:53;;;;;;;2.70;0.90;;;18.90;99.90;;;;;;5038609;28;20213;-79
2022/10/22 10:07:31;;;;;;;1.48;0.93;;;18.90;99.90;;;;;;5034540;28;20205;-79
2022/10/22 10:10:00;;;;;;;3.90;1.17;;;19.00;99.90;;;;;;5039664;28;20173;-77
2022/10/22 10:12:41;;;;;;;1.80;0.95;;;19.00;99.90;;;;;;5051233;28;20209;-80
2022/10/22 10:15:28;;;;;;;1.98;1.08;;;19.00;99.90;;;;;;5027198;28;20170;-79
2022/10/22 10:18:06;;;;;;;2.28;0.90;;;19.00;99.90;;;;;;5038552;28;20209;-81
2022/10/22 10:20:44;;;;;;;1.23;0.70;;;19.00;99.90;;;;;;5039851;28;20170;-77
2022/10/22 10:23:14;;;;;;;3.20;0.60;;;19.10;99.90;;;;;;5036009;28;20249;-77
2022/10/22 10:26:09;;;;;;;2.13;0.88;;;19.10;99.90;;;;;;5040413;28;20241;-77
2022/10/22 10:28:52;;;;;;;3.90;0.90;;;19.20;99.90;;;;;;5020524;28;20219;-78
2022/10/22 10:31:39;;;;;;;3.53;0.90;;;19.20;99.90;;;;;;5027470;28;20202;-78
2022/10/22 10:34:07;;;;;;;4.70;1.27;;;19.30;99.90;;;;;;5033223;28;20201;-80
2022/10/22 10:37:04;;;;;;;1.88;0.80;;;19.30;99.90;;;;;;5038371;28;20262;-79
2022/10/22 10:39:53;;;;;;;2.95;0.70;;;19.40;99.90;;;;;;5054270;28;20209;-78
2022/10/22 10:42:42;;;;;;;2.70;0.98;;;19.40;99.90;;;;;;5038006;28;20218;-77
2022/10/22 10:45:32;;;;;;;1.65;0.90;;;19.50;99.90;;;;;;5055089;28;20257;-78
2022/10/22 10:48:00;;;;;;;3.47;0.98;;;19.50;99.90;;;;;;5036124;28;20237;-79
2022/10/22 10:50:43;;;;;;;1.35;0.70;;;19.50;99.90;;;;;;5040142;28;20263;-79
2022/10/22 10:53:20;;;;;;;2.10;0.85;;;19.50;99.90;;;;;;5035503;28;20232;-80
2022/10/22 10:55:52;;;;;;;2.78;1.00;;;19.50;99.90;;;;;;5039598;28;20174;-80
2022/10/22 10:58:37;;;;;;;1.98;1.10;;;19.50;99.90;;;;;;5031569;28;20181;-80
2022/10/22 11:01:11;;;;;;;2.67;0.73;;;19.50;99.90;;;;;;5047605;28;20197;-79
2022/10/22 11:03:59;;;;;;;2.75;0.90;;;19.50;99.90;;;;;;5026785;28;20509;-79
2022/10/22 11:06:26;;;;;;;2.40;0.90;;;19.50;99.90;;;;;;5046078;28;20213;-78
2022/10/22 11:08:58;;;;;;;2.15;1.00;;;19.50;99.90;;;;;;5043413;28;20189;-79
2022/10/22 11:11:41;;;;;;;1.45;0.85;;;19.60;99.90;;;;;;5062208;28;20215;-78
2022/10/22 11:14:18;;;;;;;1.77;0.80;;;19.60;99.90;;;;;;5051278;28;20233;-78
2022/10/22 11:16:47;;;;;;;2.28;1.15;;;19.60;99.90;;;;;;5033327;28;20220;-80
2022/10/22 11:19:42;;;;;;;2.78;0.90;;;19.70;99.90;;;;;;5044255;28;20461;-78
2022/10/22 11:22:16;;;;;;;2.60;1.10;;;19.70;99.90;;;;;;5045298;28;20186;-79
2022/10/22 11:25:19;;;;;;;2.08;0.80;;;19.80;99.90;;;;;;5045592;28;20185;-76
2022/10/22 11:27:51;;;;;;;2.25;1.00;;;19.80;99.90;;;;;;5043820;28;20192;-78
2022/10/22 11:30:19;;;;;;;1.30;0.90;;;19.80;99.90;;;;;;5043299;28;20174;-79
2022/10/22 11:32:53;;;;;;;2.83;1.20;;;19.80;99.90;;;;;;5045671;28;20471;-79
2022/10/22 11:35:29;;;;;;;1.83;1.05;;;19.80;99.90;;;;;;5028936;28;20198;-77
2022/10/22 11:37:56;;;;;;;2.08;1.10;;;19.80;99.90;;;;;;5042431;28;20237;-78
2022/10/22 11:40:28;;;;;;;2.47;1.10;;;19.80;99.90;;;;;;5047607;28;20181;-77
2022/10/22 11:43:28;;;;;;;2.75;1.20;;;19.80;99.90;;;;;;5044533;28;20231;-79
2022/10/22 11:46:23;;;;;;;2.85;1.30;;;19.80;99.90;;;;;;5047022;28;20178;-78
2022/10/22 11:49:14;;;;;;;4.28;1.40;;;19.80;99.90;;;;;;5022203;28;20207;-78
2022/10/22 11:51:44;;;;;;;2.05;1.20;;;19.80;99.90;;;;;;5041153;28;20178;-78
2022/10/22 11:54:41;;;;;;;1.50;0.88;;;19.80;99.90;;;;;;5032497;28;20389;-78
2022/10/22 11:57:13;;;;;;;3.40;1.20;;;19.70;99.90;;;;;;5017469;28;20205;-78
2022/10/22 11:59:44;;;;;;;1.92;1.13;;;19.70;99.90;;;;;;5025869;28;20210;-79
2022/10/22 12:02:29;;;;;;;2.80;1.17;;;19.70;99.90;;;;;;5036404;28;20202;-78
2022/10/22 12:05:26;;;;;;;2.47;1.10;;;19.60;99.90;;;;;;5036513;28;20229;-79
2022/10/22 12:07:57;;;;;;;2.10;1.25;;;19.60;99.90;;;;;;5051019;28;20185;-78
2022/10/22 12:10:32;;;;;;;2.72;1.60;;;19.60;99.90;;;;;;5035191;28;20273;-78
2022/10/22 12:13:12;;;;;;;2.35;1.38;;;19.60;99.90;;;;;;5050211;28;20209;-77
2022/10/22 12:15:47;;;;;;;3.17;1.50;;;19.70;99.90;;;;;;5036281;28;20186;-76
2022/10/22 12:18:13;;;;;;;4.95;2.00;;;19.70;99.90;;;;;;5022538;28;20178;-77
2022/10/22 12:20:39;;;;;;;2.15;1.45;;;19.70;99.90;;;;;;5021992;28;20174;-80
2022/10/22 12:23:08;;;;;;;2.67;1.17;;;19.70;99.90;;;;;;5036583;28;20239;-79
2022/10/22 12:25:35;;;;;;;2.53;1.05;;;19.70;99.90;;;;;;5036631;28;20236;-79
2022/10/22 12:28:06;;;;;;;2.53;1.30;;;19.70;99.90;;;;;;5036386;28;20178;-80
2022/10/22 12:30:36;;;;;;;1.90;1.20;;;19.70;99.90;;;;;;5036417;28;20202;-80
2022/10/22 12:33:07;;;;;;;2.50;1.20;;;19.70;99.90;;;;;;5037207;28;20198;-78
2022/10/22 12:35:47;;;;;;;1.92;1.00;;;19.80;99.90;;;;;;5037024;28;20162;-79
2022/10/22 12:38:19;;;;;;;4.28;0.90;;;20.00;99.90;;;;;;5040346;28;20271;-78
2022/10/22 12:40:45;;;;;;;2.08;1.02;;;20.30;99.90;;;;;;5033904;28;20182;-78
2022/10/22 12:43:22;;;;;;;1.70;0.93;;;20.50;99.90;;;;;;5039441;28;20181;-78
2022/10/22 12:45:49;;;;;;;3.67;0.90;;;20.70;99.90;;;;;;5039584;28;20178;-78
2022/10/22 12:48:26;;;;;;;0.90;0.50;;;20.80;99.90;;;;;;5036262;28;20178;-78
2022/10/22 12:50:57;;;;;;;1.35;0.65;;;20.90;99.90;;;;;;5035308;28;20209;-78
2022/10/22 12:53:28;;;;;;;1.65;0.80;;;21.00;99.90;;;;;;5034993;28;20210;-78
2022/10/22 12:55:59;;;;;;;1.60;0.70;;;21.10;99.90;;;;;;5035818;28;20197;-77
2022/10/22 12:58:28;;;;;;;1.48;0.60;;;21.10;99.90;;;;;;5037051;28;20244;-71
2022/10/22 13:01:00;;;;;;;2.17;0.70;;;21.20;99.90;;;;;;5028944;28;20169;-71
2022/10/22 13:03:34;;;;;;;1.90;0.73;;;21.30;99.90;;;;;;5030187;28;20193;-72
2022/10/22 13:06:18;;;;;;;2.17;1.50;;;21.50;99.90;;;;;;5035032;28;20281;-73
2022/10/22 13:08:54;;;;;;;1.67;0.90;;;21.80;99.90;;;;;;5035955;28;20200;-72